createdAt,value
2022-09-28T00:00:02.302Z,98607.38
2022-09-28T00:02:28.939Z,98616.53
2022-09-28T00:04:55.550Z,98612.03
2022-09-28T00:07:22.145Z,98610.59
2022-09-28T00:09:48.848Z,98603.28
2022-09-28T00:12:40.378Z,98594.69
2022-09-28T00:15:07.600Z,98590.16
2022-09-28T00:17:34.367Z,98590.94
2022-09-28T00:20:01.217Z,98581.94
2022-09-28T00:22:28.412Z,98585.34
2022-09-28T00:24:54.985Z,98605.31
2022-09-28T00:27:53.007Z,98596.16
2022-09-28T00:31:29.408Z,98594.47
2022-09-28T00:34:00.241Z,98588.03
2022-09-28T00:36:28.737Z,98597.56
2022-09-28T00:38:59.275Z,98602.94
2022-09-28T00:41:27.900Z,98603.84
2022-09-28T00:44:26.443Z,98607.25
2022-09-28T00:47:31.264Z,98606.41
2022-09-28T00:50:12.685Z,98601.53
2022-09-28T00:52:42.916Z,98609.28
2022-09-28T00:55:15.212Z,98606.56
2022-09-28T00:57:47.202Z,98600.75
2022-09-28T01:00:14.311Z,98595.12
2022-09-28T01:06:43.796Z,98612.88
2022-09-28T01:09:13.338Z,98605.00
2022-09-28T01:11:42.345Z,98614.50
2022-09-28T01:14:15.596Z,98616.44
2022-09-28T01:17:04.177Z,98617.22
2022-09-28T01:19:33.572Z,98613.50
2022-09-28T01:22:43.937Z,98625.56
2022-09-28T01:25:37.190Z,98621.34
2022-09-28T01:28:12.290Z,98621.75
2022-09-28T01:31:03.331Z,98622.03
2022-09-28T01:34:18.078Z,98629.94
2022-09-28T01:37:07.669Z,98630.69
2022-09-28T01:42:31.584Z,98622.81
2022-09-28T01:45:06.194Z,98629.59
2022-09-28T01:47:37.868Z,98635.75
2022-09-28T01:50:13.388Z,98635.59
2022-09-28T01:52:44.026Z,98632.69
2022-09-28T01:55:46.506Z,98640.09
2022-09-28T01:58:19.212Z,98626.75
2022-09-28T02:00:52.629Z,98633.19
2022-09-28T02:03:25.771Z,98631.09
2022-09-28T02:05:58.691Z,98629.66
2022-09-28T02:08:36.110Z,98630.28
2022-09-28T02:11:27.512Z,98626.25
2022-09-28T02:17:23.206Z,98636.50
2022-09-28T02:19:50.260Z,98628.66
2022-09-28T02:22:25.604Z,98628.78
2022-09-28T02:25:10.525Z,98636.03
2022-09-28T02:27:50.149Z,98635.06
2022-09-28T02:30:39.348Z,98643.25
2022-09-28T02:33:17.394Z,98644.53
2022-09-28T02:35:44.362Z,98637.31
2022-09-28T02:38:12.437Z,98645.22
2022-09-28T02:40:40.044Z,98642.78
2022-09-28T02:43:14.563Z,98640.53
2022-09-28T02:46:03.645Z,98643.94
2022-09-28T02:52:04.944Z,98648.56
2022-09-28T02:54:37.795Z,98651.97
2022-09-28T02:57:40.255Z,98657.94
2022-09-28T03:00:36.438Z,98659.25
2022-09-28T03:03:13.012Z,98667.44
2022-09-28T03:05:58.188Z,98665.53
2022-09-28T03:08:37.029Z,98661.31
2022-09-28T03:11:25.926Z,98671.47
2022-09-28T03:13:53.373Z,98674.84
2022-09-28T03:16:20.263Z,98668.41
2022-09-28T03:18:48.649Z,98678.41
2022-09-28T03:21:40.016Z,98674.06
2022-09-28T03:24:06.780Z,98678.59
2022-09-28T03:26:33.490Z,98678.25
2022-09-28T03:29:00.058Z,98679.53
2022-09-28T03:31:26.668Z,98677.44
2022-09-28T03:33:53.305Z,98676.13
2022-09-28T03:37:30.040Z,98669.22
2022-09-28T03:40:21.793Z,98668.88
2022-09-28T03:42:48.480Z,98670.97
2022-09-28T03:45:15.137Z,98670.97
2022-09-28T03:47:48.976Z,98670.00
2022-09-28T03:50:15.988Z,98670.34
2022-09-28T03:52:42.941Z,98679.19
2022-09-28T03:55:10.118Z,98679.69
2022-09-28T03:57:37.253Z,98681.94
2022-09-28T04:00:05.398Z,98675.97
2022-09-28T04:02:32.079Z,98676.94
2022-09-28T04:04:58.656Z,98687.22
2022-09-28T04:07:27.930Z,98677.75
2022-09-28T04:09:57.565Z,98676.44
2022-09-28T04:12:24.096Z,98672.13
2022-09-28T04:14:50.969Z,98669.25
2022-09-28T04:17:17.519Z,98669.06
2022-09-28T04:19:44.085Z,98674.19
2022-09-28T04:22:10.670Z,98676.97
2022-09-28T04:24:37.257Z,98670.69
2022-09-28T04:27:22.433Z,98667.81
2022-09-28T04:29:48.993Z,98659.75
2022-09-28T04:32:15.566Z,98656.69
2022-09-28T04:34:44.394Z,98659.75
2022-09-28T04:37:11.389Z,98660.88
2022-09-28T04:39:37.982Z,98667.47
2022-09-28T04:42:04.644Z,98666.19
2022-09-28T04:44:31.567Z,98653.16
2022-09-28T04:47:01.648Z,98665.09
2022-09-28T04:49:30.880Z,98665.88
2022-09-28T08:19:21.003Z,98677.78
2022-09-28T08:21:47.852Z,98666.00
2022-09-28T08:24:54.881Z,98673.28
2022-09-28T08:27:21.725Z,98668.94
2022-09-28T08:29:48.469Z,98667.03
2022-09-28T08:32:19.824Z,98671.38
2022-09-28T08:34:50.897Z,98662.59
2022-09-28T08:37:17.665Z,98666.03
2022-09-28T08:46:47.930Z,98689.69
2022-09-28T08:49:39.888Z,98684.13
2022-09-28T08:52:19.362Z,98687.53
2022-09-28T08:55:04.560Z,98688.94
2022-09-28T08:57:41.685Z,98686.06
2022-09-28T09:00:21.071Z,98686.50
2022-09-28T09:02:48.823Z,98682.06
2022-09-28T09:05:40.940Z,98675.37
2022-09-28T09:08:41.562Z,98673.97
2022-09-28T09:11:28.016Z,98675.19
2022-09-28T09:14:36.045Z,98680.25
2022-09-28T09:17:40.351Z,98673.69
2022-09-28T09:20:36.798Z,98668.75
2022-09-28T09:26:28.742Z,98660.56
2022-09-28T09:35:19.771Z,98669.75
2022-09-28T09:38:01.003Z,98657.31
2022-09-28T09:40:50.364Z,98663.12
2022-09-28T12:23:08.335Z,98598.91
2022-09-28T12:30:57.764Z,98584.47
2022-09-28T12:33:28.541Z,98580.00
2022-09-28T12:36:35.860Z,98585.69
2022-09-28T12:39:27.183Z,98570.78
2022-09-28T12:42:51.484Z,98566.72
2022-09-28T12:45:53.112Z,98562.47
2022-09-28T12:48:36.388Z,98555.56
2022-09-28T12:51:15.940Z,98556.31
2022-09-28T13:43:31.633Z,98547.13
2022-09-28T13:46:07.716Z,98533.22
2022-09-28T13:49:09.212Z,98542.72
2022-09-28T13:52:15.123Z,98536.97
2022-09-28T13:55:37.100Z,98556.28
2022-09-28T13:58:22.434Z,98557.53
2022-09-28T14:00:56.942Z,98560.91
2022-09-28T14:03:28.278Z,98555.31
2022-09-28T14:06:31.835Z,98554.47
2022-09-28T14:09:13.715Z,98548.66
2022-09-28T14:11:56.349Z,98554.75
2022-09-28T14:53:20.711Z,98520.31
2022-09-28T15:09:05.030Z,98516.97
2022-09-28T15:11:32.420Z,98517.06
2022-09-28T15:14:25.440Z,98521.84
2022-09-28T15:28:22.659Z,98494.13
2022-09-28T16:07:00.852Z,98500.78
2022-09-28T16:10:00.075Z,98512.47
2022-09-28T16:12:59.318Z,98502.16
2022-09-28T16:15:37.378Z,98502.78
2022-09-28T16:18:22.564Z,98504.88
2022-09-28T16:20:54.351Z,98492.13
2022-09-28T16:23:25.212Z,98491.41
2022-09-28T16:26:07.018Z,98496.53
2022-09-28T16:28:34.618Z,98496.84
2022-09-28T16:31:13.082Z,98493.59
2022-09-28T17:55:22.685Z,98534.12
2022-09-28T17:57:49.821Z,98524.69
2022-09-28T18:00:17.744Z,98526.12
2022-09-28T18:02:45.055Z,98535.97
2022-09-28T18:05:14.774Z,98533.12
2022-09-28T18:07:47.583Z,98535.56
2022-09-28T18:10:21.658Z,98543.56
2022-09-28T18:12:49.512Z,98536.00
2022-09-28T18:15:17.839Z,98533.38
2022-09-28T18:17:45.053Z,98540.38
2022-09-28T18:20:13.143Z,98539.97
2022-09-28T18:22:39.813Z,98546.88
2022-09-28T18:25:07.165Z,98542.63
2022-09-28T18:27:34.964Z,98542.06
2022-09-28T18:30:02.093Z,98548.81
2022-09-28T18:32:28.644Z,98548.72
2022-09-28T18:34:55.257Z,98549.72
2022-09-28T18:37:21.840Z,98557.53
2022-09-28T18:39:48.373Z,98543.66
2022-09-28T18:42:14.971Z,98551.38
2022-09-28T18:44:41.546Z,98545.87
2022-09-28T18:47:08.088Z,98546.38
2022-09-28T18:49:34.709Z,98553.56
2022-09-28T18:52:01.576Z,98549.69
2022-09-28T18:54:28.245Z,98555.38
2022-09-28T18:56:57.261Z,98552.16
2022-09-28T18:59:24.032Z,98555.63
2022-09-28T19:01:51.754Z,98555.88
2022-09-28T19:04:20.478Z,98553.72
2022-09-28T19:06:51.699Z,98558.81
2022-09-28T19:09:20.451Z,98557.00
2022-09-28T19:11:47.912Z,98562.06
2022-09-28T19:14:17.851Z,98562.22
2022-09-28T19:16:45.608Z,98559.09
2022-09-28T19:19:14.141Z,98567.03
2022-09-28T19:21:43.294Z,98563.44
2022-09-28T19:24:14.524Z,98554.16
2022-09-28T19:26:41.671Z,98554.78
2022-09-28T19:29:10.118Z,98552.84
2022-09-28T19:31:36.989Z,98545.75
2022-09-28T19:34:04.308Z,98550.09
2022-09-28T19:36:34.015Z,98553.53
2022-09-28T19:39:03.457Z,98544.38
2022-09-28T19:41:43.358Z,98548.50
2022-09-28T19:44:10.504Z,98552.75
2022-09-28T19:46:40.405Z,98558.59
2022-09-28T19:49:12.891Z,98554.78
2022-09-28T19:52:01.725Z,98553.31
2022-09-28T19:57:09.628Z,98546.03
2022-09-28T19:59:37.580Z,98545.59
2022-09-28T20:02:06.766Z,98550.53
2022-09-28T20:04:33.416Z,98543.53
2022-09-28T20:06:59.993Z,98533.44
2022-09-28T20:09:26.569Z,98533.00
2022-09-28T20:11:53.291Z,98523.91
2022-09-28T20:14:21.466Z,98541.88
2022-09-28T20:16:50.101Z,98534.91
2022-09-28T20:19:19.021Z,98528.56
2022-09-28T20:21:45.768Z,98532.22
2022-09-28T20:24:12.377Z,98538.78
2022-09-28T20:26:39.295Z,98531.09
2022-09-28T20:29:07.355Z,98530.16
2022-09-28T20:31:38.590Z,98535.53
2022-09-28T20:34:14.413Z,98533.38
2022-09-28T20:36:44.648Z,98530.16
2022-09-28T20:39:11.659Z,98523.84
2022-09-28T20:41:38.414Z,98521.41
2022-09-28T20:44:06.674Z,98522.00
2022-09-28T20:46:37.068Z,98525.88
2022-09-28T20:49:40.789Z,98513.00
2022-09-28T20:52:29.140Z,98519.41
2022-09-28T20:54:55.746Z,98513.00
2022-09-28T20:57:22.301Z,98509.81
2022-09-28T20:59:54.338Z,98500.31
2022-09-28T21:02:22.342Z,98502.78
2022-09-28T21:04:48.929Z,98499.41
2022-09-28T21:07:15.460Z,98499.66
2022-09-28T21:09:45.068Z,98498.50
2022-09-28T21:12:12.737Z,98503.00
2022-09-28T21:14:39.281Z,98504.00
2022-09-28T21:17:05.820Z,98486.97
2022-09-28T21:19:32.424Z,98491.09
2022-09-28T21:22:20.747Z,98487.06
2022-09-28T21:24:47.289Z,98497.78
2022-09-28T21:27:13.841Z,98494.75
2022-09-28T21:29:40.389Z,98489.00
2022-09-28T21:32:08.180Z,98491.94
2022-09-28T21:34:35.998Z,98492.72
2022-09-28T21:37:02.557Z,98496.03
2022-09-28T21:42:46.010Z,98495.81
2022-09-28T21:45:12.631Z,98495.22
2022-09-28T21:47:41.353Z,98487.91
2022-09-28T21:50:08.312Z,98487.13
2022-09-28T21:52:34.935Z,98486.66
2022-09-28T21:55:01.517Z,98489.41
2022-09-28T21:57:38.062Z,98492.63
2022-09-28T22:00:05.002Z,98488.97
2022-09-28T22:02:33.739Z,98488.53
2022-09-28T22:05:00.292Z,98488.72
2022-09-28T22:07:26.867Z,98492.16
2022-09-28T22:09:53.723Z,98496.00
2022-09-28T22:12:42.336Z,98500.16
2022-09-28T22:18:20.125Z,98494.16
2022-09-28T22:20:46.729Z,98490.72
2022-09-28T22:23:13.334Z,98497.31
2022-09-28T22:25:39.883Z,98495.88
2022-09-28T22:28:06.426Z,98491.28
2022-09-28T22:30:34.894Z,98482.56
2022-09-28T22:33:20.010Z,98472.50
2022-09-28T22:35:49.086Z,98466.16
2022-09-28T22:38:15.851Z,98471.97
2022-09-28T22:40:56.110Z,98474.69
2022-09-28T22:43:23.950Z,98470.31
2022-09-28T22:46:00.093Z,98471.66
2022-09-28T22:52:03.484Z,98487.19
2022-09-28T22:54:30.296Z,98490.06
2022-09-28T22:56:56.845Z,98487.78
2022-09-28T22:59:23.429Z,98489.16
2022-09-28T23:01:50.008Z,98477.66
2022-09-28T23:04:16.628Z,98481.47
2022-09-28T23:07:01.528Z,98481.28
2022-09-28T23:09:28.100Z,98484.87
2022-09-28T23:11:54.648Z,98475.38
2022-09-28T23:14:22.744Z,98481.50
2022-09-28T23:16:49.281Z,98484.50
2022-09-28T23:19:16.946Z,98480.03
2022-09-28T23:25:52.909Z,98474.91
2022-09-28T23:28:21.757Z,98471.34
2022-09-28T23:30:48.681Z,98473.22
2022-09-28T23:33:16.892Z,98466.81
2022-09-28T23:35:44.056Z,98470.88
2022-09-28T23:38:16.681Z,98475.69
2022-09-28T23:40:44.552Z,98473.75
2022-09-28T23:43:11.381Z,98475.44
2022-09-28T23:45:37.933Z,98475.66
2022-09-28T23:48:04.761Z,98486.06
2022-09-28T23:50:31.319Z,98480.38
2022-09-28T23:52:57.937Z,98479.06
2022-09-28T23:55:46.286Z,98482.50
2022-09-28T23:58:12.929Z,98479.31
